Time;durP1;ratioP1;P1;durP2;ratioP2;P2;SDS_P1;SDS_P2;PMS_P1;PMS_P2;Temp;Humidity;BMP_temperature;BMP_pressure;BME280_temperature;BME280_humidity;BME280_pressure;Samples;Min_cycle;Max_cycle;Signal;HPM_P1;HPM_P2
2022/05/21 00:01:54;;;;;;;1.50;0.88;;;;;;;5.32;62.38;101045.19;5073774;28;20203;-76
2022/05/21 00:04:19;;;;;;;2.58;1.40;;;;;;;5.31;62.08;101067.19;5075106;28;20028;-76
2022/05/21 00:06:45;;;;;;;3.65;1.30;;;;;;;5.28;62.19;101035.84;5074934;28;20423;-76
2022/05/21 00:09:11;;;;;;;1.65;1.20;;;;;;;5.26;62.14;101054.31;5084991;28;20036;-76
2022/05/21 00:11:38;;;;;;;2.13;1.70;;;;;;;5.25;61.86;101046.38;5076172;28;20045;-77
2022/05/21 00:14:04;;;;;;;1.60;1.20;;;;;;;5.23;61.29;101048.50;5078808;28;20142;-76
2022/05/21 00:16:29;;;;;;;5.25;1.60;;;;;;;5.20;61.59;101057.13;5073063;28;20510;-76
2022/05/21 00:18:55;;;;;;;1.15;0.98;;;;;;;5.17;61.63;101044.00;5073812;28;20071;-76
2022/05/21 00:21:21;;;;;;;1.75;1.42;;;;;;;5.18;61.21;101045.66;5077556;28;20043;-76
2022/05/21 00:23:46;;;;;;;1.60;1.08;;;;;;;5.18;60.89;101061.97;5078311;28;20087;-76
2022/05/21 00:26:14;;;;;;;1.58;0.88;;;;;;;5.14;61.13;101045.31;5072563;28;20052;-76
2022/05/21 00:28:42;;;;;;;1.55;1.23;;;;;;;5.12;60.56;101050.97;5071405;28;20044;-76
2022/05/21 00:31:10;;;;;;;2.03;1.05;;;;;;;5.11;61.16;101040.34;5071317;28;20518;-76
2022/05/21 00:33:36;;;;;;;4.78;1.35;;;;;;;5.10;60.85;101046.84;5074232;28;20037;-75
2022/05/21 00:36:03;;;;;;;3.28;1.20;;;;;;;5.07;61.10;101028.28;5086889;28;20038;-76
2022/05/21 00:38:28;;;;;;;1.52;1.13;;;;;;;5.06;60.68;101027.44;5076094;28;20055;-76
2022/05/21 00:40:55;;;;;;;1.48;1.13;;;;;;;5.06;61.11;101023.91;5081159;28;20040;-76
2022/05/21 00:43:42;;;;;;;3.78;1.70;;;;;;;5.04;60.87;101023.31;5086686;28;20043;-76
2022/05/21 00:46:16;;;;;;;1.10;1.00;;;;;;;5.04;60.94;101024.13;5092179;28;20525;-76
2022/05/21 00:48:43;;;;;;;2.03;1.40;;;;;;;5.06;60.54;101016.56;5082313;28;20425;-76
2022/05/21 00:51:14;;;;;;;2.05;1.35;;;;;;;5.04;60.61;101017.88;5073004;28;20094;-76
2022/05/21 00:53:41;;;;;;;1.55;1.45;;;;;;;5.03;60.69;101017.03;5071519;28;20052;-77
2022/05/21 00:56:07;;;;;;;1.48;1.05;;;;;;;5.02;60.56;101014.53;5085933;28;20515;-76
2022/05/21 01:01:18;;;;;;;1.33;0.93;;;;;;;5.04;60.10;101007.00;5072704;28;20032;-77
2022/05/21 01:03:44;;;;;;;2.22;1.30;;;;;;;5.04;60.03;101012.44;5082343;28;20085;-76
2022/05/21 01:06:11;;;;;;;1.67;1.50;;;;;;;5.02;59.70;101000.94;5089652;28;20032;-76
2022/05/21 01:08:38;;;;;;;1.67;1.17;;;;;;;5.02;59.83;100990.06;5078669;28;20032;-77
2022/05/21 01:11:11;;;;;;;2.00;1.20;;;;;;;5.01;60.06;101019.16;5077228;28;20037;-76
2022/05/21 01:13:38;;;;;;;1.08;0.90;;;;;;;5.02;59.40;101007.19;5073742;28;20097;-76
2022/05/21 01:16:06;;;;;;;2.42;1.20;;;;;;;5.01;59.16;101008.25;5072653;28;20054;-76
2022/05/21 01:18:31;;;;;;;1.27;0.90;;;;;;;5.02;58.85;100990.88;5071181;28;20052;-76
2022/05/21 01:20:59;;;;;;;2.58;0.93;;;;;;;5.03;58.96;100983.56;5091685;28;20096;-76
2022/05/21 01:23:26;;;;;;;1.92;1.15;;;;;;;5.05;59.05;100998.59;5085780;28;20037;-76
2022/05/21 01:25:53;;;;;;;1.65;1.10;;;;;;;5.10;58.59;101006.88;5078898;28;20045;-76
2022/05/21 01:28:21;;;;;;;1.98;0.73;;;;;;;5.11;58.62;100994.91;5074891;28;20132;-74
2022/05/21 01:30:55;;;;;;;1.77;1.15;;;;;;;5.12;58.47;100991.13;5076908;28;20051;-74
2022/05/21 01:33:23;;;;;;;0.98;0.90;;;;;;;5.11;58.97;100986.75;5070986;28;20086;-76
2022/05/21 01:35:49;;;;;;;1.10;1.00;;;;;;;5.13;58.56;100990.06;5086304;28;20054;-76
2022/05/21 01:38:17;;;;;;;3.72;1.05;;;;;;;5.14;58.42;100986.28;5086792;28;20044;-74
2022/05/21 01:40:42;;;;;;;0.57;0.47;;;;;;;5.17;58.75;100968.66;5083363;28;20039;-74
2022/05/21 01:45:52;;;;;;;2.50;1.10;;;;;;;5.20;58.82;100970.91;5071354;28;20571;-75
2022/05/21 01:48:24;;;;;;;0.73;0.63;;;;;;;5.25;58.55;100983.81;5088998;28;20123;-74
2022/05/21 01:50:51;;;;;;;4.90;1.17;;;;;;;5.32;58.57;100987.22;5075019;28;20487;-76
2022/05/21 01:53:18;;;;;;;1.75;1.05;;;;;;;5.39;58.53;100985.22;5072356;28;20222;-76
2022/05/21 01:55:44;;;;;;;2.83;1.23;;;;;;;5.45;58.03;100981.53;5070374;28;20048;-76
2022/05/21 01:58:10;;;;;;;2.45;1.17;;;;;;;5.51;57.82;100983.28;5085693;28;20047;-75
2022/05/21 02:00:36;;;;;;;0.70;0.52;;;;;;;5.56;58.12;100983.41;5071266;28;20044;-75
2022/05/21 02:03:02;;;;;;;1.30;1.00;;;;;;;5.62;57.98;100979.72;5086633;28;20036;-76
2022/05/21 02:05:27;;;;;;;1.10;1.00;;;;;;;5.70;58.49;100982.06;5089606;28;20040;-75
2022/05/21 02:07:53;;;;;;;1.83;1.30;;;;;;;5.79;57.62;100968.09;5078013;28;20101;-75
2022/05/21 02:10:19;;;;;;;1.65;0.93;;;;;;;5.82;57.79;100973.03;5075619;28;20248;-74
2022/05/21 02:12:44;;;;;;;1.75;0.93;;;;;;;5.86;57.93;100966.88;5080084;28;20040;-74
2022/05/21 02:15:11;;;;;;;1.55;0.85;;;;;;;5.94;57.58;100968.44;5073068;28;20040;-74
2022/05/21 02:17:36;;;;;;;1.10;1.00;;;;;;;5.99;57.76;100961.16;5085687;28;20067;-76
2022/05/21 02:20:03;;;;;;;1.52;1.30;;;;;;;6.12;57.18;100959.22;5088955;28;20123;-75
2022/05/21 02:22:30;;;;;;;2.22;1.10;;;;;;;6.18;57.24;100963.69;5085696;28;20075;-75
2022/05/21 02:24:55;;;;;;;4.13;1.35;;;;;;;6.26;56.82;100975.03;5077854;28;20036;-75
2022/05/21 02:27:21;;;;;;;2.13;1.20;;;;;;;6.34;56.29;100971.09;5074995;28;20422;-75
2022/05/21 02:29:47;;;;;;;2.45;1.20;;;;;;;6.41;56.37;100973.66;5073050;28;20458;-76
2022/05/21 02:32:14;;;;;;;2.72;1.10;;;;;;;6.50;56.11;100961.28;5075332;28;20043;-75
2022/05/21 02:34:41;;;;;;;1.83;0.95;;;;;;;6.64;56.20;100960.72;5074882;28;20082;-76
2022/05/21 02:39:51;;;;;;;1.05;0.60;;;;;;;6.84;56.09;100952.03;5068910;28;20487;-75
2022/05/21 02:45:03;;;;;;;2.78;0.90;;;;;;;6.91;55.55;100947.22;5071615;28;20410;-75
2022/05/21 02:47:30;;;;;;;1.73;1.13;;;;;;;7.00;55.49;100952.28;5082319;28;20040;-75
2022/05/21 02:49:55;;;;;;;1.55;0.88;;;;;;;7.08;55.73;100938.19;5071340;28;20048;-75
2022/05/21 02:52:21;;;;;;;1.23;1.02;;;;;;;7.18;55.85;100957.47;5081756;28;20372;-75
2022/05/21 02:54:47;;;;;;;2.50;0.90;;;;;;;7.27;55.61;100942.28;5076197;28;20044;-75
2022/05/21 02:57:12;;;;;;;1.98;1.40;;;;;;;7.31;55.17;100954.38;5085456;28;20032;-75
2022/05/21 02:59:38;;;;;;;1.92;1.30;;;;;;;7.30;55.24;100941.81;5073894;28;20119;-75
2022/05/21 03:02:05;;;;;;;1.08;0.88;;;;;;;7.38;55.44;100957.75;5071625;28;20033;-75
2022/05/21 03:04:30;;;;;;;2.30;1.00;;;;;;;7.44;54.63;100951.25;5103062;28;20044;-75
2022/05/21 03:06:56;;;;;;;2.55;1.10;;;;;;;7.50;54.63;100960.38;5075771;28;20032;-75
2022/05/21 03:12:08;;;;;;;1.30;1.05;;;;;;;7.57;54.71;100961.81;5084753;28;20036;-75
2022/05/21 03:14:34;;;;;;;1.60;0.93;;;;;;;7.59;54.41;100950.63;5078254;28;20040;-76
2022/05/21 03:16:59;;;;;;;2.72;1.20;;;;;;;7.61;54.30;100939.47;5073366;28;20044;-75
2022/05/21 03:19:29;;;;;;;1.95;1.00;;;;;;;7.73;54.34;100948.34;5081053;28;20029;-75
2022/05/21 03:21:55;;;;;;;3.13;0.90;;;;;;;7.83;54.25;100945.75;5072484;28;20042;-75
2022/05/21 03:24:21;;;;;;;1.17;0.88;;;;;;;8.05;54.16;100943.81;5075611;28;20032;-75
2022/05/21 03:26:47;;;;;;;1.02;0.70;;;;;;;8.19;53.94;100946.16;5081196;28;20039;-75
2022/05/21 03:29:13;;;;;;;1.33;0.70;;;;;;;8.27;53.18;100948.41;5080974;28;20086;-75
2022/05/21 03:31:38;;;;;;;1.63;0.93;;;;;;;8.40;53.34;100953.50;5075695;28;20097;-75
2022/05/21 03:34:04;;;;;;;1.20;1.00;;;;;;;8.56;52.55;100952.53;5089054;28;20031;-75
2022/05/21 03:36:30;;;;;;;1.23;0.98;;;;;;;8.75;52.22;100955.72;5082714;28;20467;-75
2022/05/21 03:38:57;;;;;;;2.17;1.00;;;;;;;8.83;52.25;100955.22;5069035;28;20621;-75
2022/05/21 03:41:23;;;;;;;3.35;0.98;;;;;;;8.81;51.40;100943.72;5073714;28;20047;-75
2022/05/21 03:43:49;;;;;;;1.67;1.10;;;;;;;8.90;51.83;100955.00;5073901;28;20060;-75
2022/05/21 03:46:15;;;;;;;1.63;1.20;;;;;;;8.98;51.73;100940.81;5075331;28;20139;-75
2022/05/21 03:48:41;;;;;;;2.45;1.00;;;;;;;9.03;51.66;100946.34;5088115;28;20047;-76
2022/05/21 03:51:06;;;;;;;0.90;0.90;;;;;;;9.03;50.85;100949.91;5076926;28;20529;-76
2022/05/21 03:53:32;;;;;;;2.05;1.17;;;;;;;9.08;51.20;100949.13;5081224;28;20047;-75
2022/05/21 03:55:58;;;;;;;1.70;1.10;;;;;;;9.15;51.02;100944.22;5073026;28;20043;-76
2022/05/21 03:58:23;;;;;;;1.73;1.00;;;;;;;9.20;50.70;100938.81;5071879;28;20048;-76
2022/05/21 04:00:50;;;;;;;3.53;1.20;;;;;;;9.34;50.32;100937.22;5082183;28;20055;-76
2022/05/21 04:03:16;;;;;;;4.70;1.40;;;;;;;9.52;50.54;100937.84;5075317;28;20399;-76
2022/05/21 04:05:42;;;;;;;3.22;1.15;;;;;;;9.70;49.48;100934.66;5075127;28;20048;-75
2022/05/21 04:08:08;;;;;;;1.50;1.40;;;;;;;9.84;49.71;100930.31;5075157;28;20044;-76
2022/05/21 04:10:34;;;;;;;1.83;1.00;;;;;;;9.94;49.69;100930.38;5089693;28;20059;-76
2022/05/21 04:13:00;;;;;;;2.35;1.00;;;;;;;9.96;49.46;100938.31;5090673;28;20036;-75
2022/05/21 04:15:26;;;;;;;3.88;1.40;;;;;;;10.02;49.14;100939.97;5084079;28;20077;-75
2022/05/21 04:17:53;;;;;;;2.45;1.05;;;;;;;10.05;49.21;100938.59;5074275;28;20521;-74
2022/05/21 04:20:23;;;;;;;2.25;1.00;;;;;;;10.02;49.35;100929.00;5075402;28;20494;-74
2022/05/21 04:22:49;;;;;;;1.70;1.15;;;;;;;10.11;49.13;100930.13;5083785;28;20754;-75
2022/05/21 04:25:15;;;;;;;2.05;1.33;;;;;;;10.26;48.22;100921.97;5082275;28;20440;-75
2022/05/21 04:27:41;;;;;;;2.45;1.23;;;;;;;10.37;48.98;100908.25;5088409;28;20029;-75
2022/05/21 04:30:12;;;;;;;2.60;1.52;;;;;;;10.47;48.50;100925.53;5073312;28;20098;-75
2022/05/21 04:32:38;;;;;;;2.22;0.93;;;;;;;10.65;47.41;100902.22;5088664;28;20044;-75
2022/05/21 04:35:04;;;;;;;2.70;1.23;;;;;;;10.76;47.82;100922.22;5085954;28;20033;-75
2022/05/21 04:37:30;;;;;;;2.38;1.38;;;;;;;10.85;47.63;100926.09;5088257;28;20044;-75
2022/05/21 04:39:55;;;;;;;3.72;1.50;;;;;;;10.96;46.42;100927.72;5091016;28;20399;-74
2022/05/21 04:42:21;;;;;;;1.45;1.27;;;;;;;10.95;46.47;100928.00;5083194;28;20064;-74
2022/05/21 04:44:47;;;;;;;3.65;1.60;;;;;;;10.97;46.46;100923.06;5092932;28;20044;-74
2022/05/21 04:47:12;;;;;;;6.40;1.50;;;;;;;11.07;46.73;100923.03;5088748;28;20047;-74
2022/05/21 04:49:38;;;;;;;5.00;1.60;;;;;;;11.30;46.52;100929.88;5077995;28;20081;-75
2022/05/21 04:52:04;;;;;;;5.10;1.45;;;;;;;11.55;46.22;100927.03;5090557;28;20058;-75
2022/05/21 04:54:30;;;;;;;3.10;1.65;;;;;;;11.74;45.79;100914.28;5086873;28;20055;-74
2022/05/21 04:56:56;;;;;;;5.13;1.70;;;;;;;11.78;44.96;100925.53;5078229;28;20043;-75
2022/05/21 04:59:21;;;;;;;2.55;1.50;;;;;;;11.88;44.79;100928.28;5082036;28;20036;-74
2022/05/21 05:01:47;;;;;;;3.72;1.50;;;;;;;12.06;44.10;100926.81;5079600;28;20036;-74
2022/05/21 05:04:13;;;;;;;3.53;1.50;;;;;;;12.12;43.75;100935.84;5076446;28;20048;-74
2022/05/21 05:06:39;;;;;;;1.20;0.95;;;;;;;12.15;43.50;100924.28;5088262;28;20392;-75
2022/05/21 05:09:06;;;;;;;3.55;1.40;;;;;;;12.20;43.41;100927.00;5084965;28;20047;-74
2022/05/21 05:11:32;;;;;;;4.43;1.45;;;;;;;12.22;43.58;100917.38;5083115;28;20035;-76
2022/05/21 05:13:57;;;;;;;4.03;1.40;;;;;;;12.35;43.68;100916.72;5079378;28;20039;-75
2022/05/21 05:16:23;;;;;;;1.35;1.25;;;;;;;12.44;43.02;100902.34;5083136;28;20067;-75
2022/05/21 05:18:48;;;;;;;1.92;1.38;;;;;;;12.56;43.26;100914.63;5076392;28;20036;-75
2022/05/21 05:21:19;;;;;;;2.22;1.13;;;;;;;12.73;42.54;100911.47;5084448;28;20038;-76
2022/05/21 05:23:45;;;;;;;2.50;1.33;;;;;;;12.78;42.48;100922.44;5078033;28;20090;-75
2022/05/21 05:26:10;;;;;;;2.17;1.10;;;;;;;12.79;42.42;100910.31;5067849;28;20120;-74
2022/05/21 05:28:36;;;;;;;2.28;1.13;;;;;;;12.79;42.40;100903.97;5073554;28;20040;-74
2022/05/21 05:31:02;;;;;;;1.95;1.25;;;;;;;12.74;42.39;100906.78;5070749;28;20131;-74
2022/05/21 05:33:30;;;;;;;1.35;1.20;;;;;;;12.73;42.46;100911.47;5074196;28;20072;-75
2022/05/21 05:35:55;;;;;;;1.83;1.13;;;;;;;12.78;42.32;100889.38;5070904;28;20028;-74
2022/05/21 05:38:22;;;;;;;3.33;1.20;;;;;;;12.82;42.48;100898.69;5080241;28;20185;-74
2022/05/21 05:40:50;;;;;;;1.05;0.95;;;;;;;12.94;41.86;100903.84;5073463;28;20044;-73
2022/05/21 05:43:17;;;;;;;3.13;1.20;;;;;;;13.12;42.04;100899.50;5071379;28;20028;-73
2022/05/21 05:45:43;;;;;;;1.27;0.93;;;;;;;13.23;41.85;100895.59;5071099;28;20128;-74
2022/05/21 05:48:09;;;;;;;1.17;0.88;;;;;;;13.35;41.25;100884.94;5073920;28;20055;-74
2022/05/21 05:50:34;;;;;;;5.70;1.17;;;;;;;13.46;40.98;100888.41;5071319;28;20079;-74
2022/05/21 05:53:02;;;;;;;3.72;1.00;;;;;;;13.59;40.75;100893.22;5078301;28;20513;-73
2022/05/21 05:55:28;;;;;;;2.65;0.95;;;;;;;13.63;40.92;100891.50;5097377;28;20043;-73
2022/05/21 05:57:54;;;;;;;1.98;0.90;;;;;;;13.65;40.52;100885.69;5093391;28;20051;-72
2022/05/21 06:00:20;;;;;;;1.70;0.90;;;;;;;13.55;40.97;100881.16;5102487;28;20468;-73
2022/05/21 06:02:58;;;;;;;1.23;0.70;;;;;;;13.57;41.55;100893.50;5087214;28;20043;-74
2022/05/21 06:05:26;;;;;;;0.50;0.47;;;;;;;13.78;40.51;100884.97;5089087;28;20395;-74
2022/05/21 06:08:04;;;;;;;1.90;1.00;;;;;;;13.72;40.29;100887.00;5090706;28;20066;-74
2022/05/21 06:10:32;;;;;;;1.00;0.63;;;;;;;13.66;40.93;100893.66;5090193;28;20485;-74
2022/05/21 06:12:58;;;;;;;1.95;0.70;;;;;;;13.95;40.70;100882.53;5089458;28;20450;-74
2022/05/21 06:15:25;;;;;;;1.83;0.90;;;;;;;14.05;40.13;100870.50;5090403;28;20521;-74
2022/05/21 06:17:52;;;;;;;1.40;0.82;;;;;;;14.10;40.20;100876.78;5078643;28;20048;-73
2022/05/21 06:20:22;;;;;;;1.23;1.00;;;;;;;14.16;40.47;100875.59;5089677;28;20498;-73
2022/05/21 06:22:50;;;;;;;1.40;0.85;;;;;;;14.04;39.87;100882.66;5089663;28;20123;-74
2022/05/21 06:25:18;;;;;;;1.15;0.88;;;;;;;14.03;40.05;100878.25;5089819;28;20405;-74
2022/05/21 06:27:48;;;;;;;0.60;0.60;;;;;;;14.00;39.97;100871.41;5085136;28;20042;-73
2022/05/21 06:30:15;;;;;;;2.55;0.90;;;;;;;13.93;40.45;100868.22;5085182;28;20035;-74
2022/05/21 06:32:41;;;;;;;2.47;0.80;;;;;;;13.94;41.15;100860.75;5089924;28;20060;-74
2022/05/21 06:35:08;;;;;;;2.35;0.60;;;;;;;13.84;41.07;100856.19;5085968;28;20486;-74
2022/05/21 06:37:33;;;;;;;2.17;0.83;;;;;;;14.00;40.23;100859.56;5088534;28;20047;-74
2022/05/21 06:39:59;;;;;;;1.23;0.60;;;;;;;14.00;40.00;100860.38;5089770;28;20035;-73
2022/05/21 06:42:24;;;;;;;0.65;0.60;;;;;;;14.06;40.31;100856.44;5094784;28;20089;-72
2022/05/21 06:44:51;;;;;;;0.98;0.70;;;;;;;14.01;40.42;100873.06;5091875;28;20032;-73
2022/05/21 06:47:16;;;;;;;0.93;0.63;;;;;;;14.02;39.61;100862.81;5087843;28;20040;-72
2022/05/21 06:49:42;;;;;;;1.30;0.90;;;;;;;13.94;39.69;100858.81;5087752;28;20097;-74
2022/05/21 06:52:07;;;;;;;0.65;0.65;;;;;;;13.95;40.07;100848.59;5086533;28;20036;-74
2022/05/21 06:54:33;;;;;;;1.20;0.38;;;;;;;13.85;40.28;100849.56;5084345;28;20048;-74
2022/05/21 06:56:58;;;;;;;0.50;0.47;;;;;;;13.85;40.46;100846.81;5085861;28;20513;-74
2022/05/21 06:59:25;;;;;;;0.50;0.50;;;;;;;13.79;40.52;100846.06;5084319;28;20036;-74
2022/05/21 07:01:50;;;;;;;0.90;0.63;;;;;;;13.82;40.54;100845.47;5085774;28;20059;-72
2022/05/21 07:04:16;;;;;;;0.60;0.60;;;;;;;13.73;40.86;100851.97;5082432;28;20032;-73
2022/05/21 07:09:27;;;;;;;1.23;0.60;;;;;;;13.37;41.01;100874.47;5079663;28;20546;-73
2022/05/21 07:11:52;;;;;;;2.25;1.00;;;;;;;13.52;40.65;100849.44;5079279;28;20036;-73
2022/05/21 07:14:19;;;;;;;0.98;0.70;;;;;;;13.67;40.07;100878.75;5086529;28;20047;-73
2022/05/21 07:16:45;;;;;;;2.40;0.60;;;;;;;13.37;40.15;100852.44;5082433;28;20036;-74
2022/05/21 07:19:11;;;;;;;0.40;0.40;;;;;;;13.35;40.19;100853.81;5076749;28;20042;-72
2022/05/21 07:21:37;;;;;;;1.45;0.80;;;;;;;13.36;40.27;100871.97;5080103;28;20487;-73
2022/05/21 07:24:03;;;;;;;1.67;0.57;;;;;;;13.49;39.73;100858.31;5073540;28;20587;-72
2022/05/21 07:26:29;;;;;;;4.40;0.80;;;;;;;13.72;38.59;100847.56;5087998;28;20145;-73
2022/05/21 07:28:56;;;;;;;2.30;0.70;;;;;;;13.85;38.29;100852.31;5084275;28;20127;-74
2022/05/21 07:31:22;;;;;;;0.77;0.60;;;;;;;13.93;37.65;100854.41;5069750;28;20359;-77
2022/05/21 07:33:49;;;;;;;2.90;0.97;;;;;;;13.82;37.62;100858.44;5084269;28;20052;-72
2022/05/21 07:36:14;;;;;;;1.10;0.70;;;;;;;13.73;37.75;100861.06;5075610;28;20056;-73
2022/05/21 07:38:40;;;;;;;1.63;0.70;;;;;;;13.80;37.71;100866.19;5080082;28;20139;-73
2022/05/21 07:41:07;;;;;;;1.85;0.90;;;;;;;13.90;37.21;100843.16;5094086;28;20036;-74
2022/05/21 07:43:33;;;;;;;1.70;0.68;;;;;;;13.74;37.00;100879.25;5078612;28;20044;-73
2022/05/21 07:45:59;;;;;;;2.55;0.82;;;;;;;13.73;38.09;100874.84;5089516;28;20097;-73
2022/05/21 07:48:25;;;;;;;0.85;0.70;;;;;;;13.73;38.53;100851.97;5075201;28;20040;-73
2022/05/21 07:50:54;;;;;;;3.17;1.00;;;;;;;14.01;38.29;100856.50;5086239;28;20101;-73
2022/05/21 07:53:23;;;;;;;1.48;0.60;;;;;;;14.16;37.63;100866.47;5073839;28;20059;-73
2022/05/21 07:55:51;;;;;;;0.57;0.47;;;;;;;14.16;36.73;100856.25;5075427;28;20032;-73
2022/05/21 07:58:21;;;;;;;1.90;0.90;;;;;;;14.21;36.10;100866.41;5077247;28;20135;-74
2022/05/21 08:00:48;;;;;;;0.85;0.70;;;;;;;13.90;35.89;100857.78;5074040;28;20094;-73
2022/05/21 08:03:14;;;;;;;1.75;0.82;;;;;;;13.98;36.10;100887.44;5088606;28;20052;-73
2022/05/21 08:05:41;;;;;;;1.98;0.70;;;;;;;14.14;36.95;100858.50;5088146;28;20040;-73
2022/05/21 08:08:08;;;;;;;3.30;0.73;;;;;;;14.02;35.90;100855.38;5074228;28;20047;-74
2022/05/21 08:10:43;;;;;;;1.60;0.68;;;;;;;13.90;35.88;100855.03;5084581;28;20055;-73
2022/05/21 08:13:10;;;;;;;1.17;0.80;;;;;;;13.95;36.42;100863.22;5091030;28;20047;-73
2022/05/21 08:15:37;;;;;;;2.38;0.68;;;;;;;14.07;36.68;100840.69;5093728;28;20031;-74
2022/05/21 08:18:04;;;;;;;3.38;0.80;;;;;;;14.03;36.09;100848.72;5081251;28;20044;-73
2022/05/21 08:20:31;;;;;;;2.83;0.80;;;;;;;14.15;36.14;100853.81;5076379;28;20499;-74
2022/05/21 08:28:26;;;;;;;0.85;0.68;;;;;;;14.03;36.11;100859.78;5079721;28;20123;-74
2022/05/21 08:30:52;;;;;;;1.15;0.70;;;;;;;14.06;36.38;100852.84;5075109;28;20181;-73
2022/05/21 08:33:19;;;;;;;2.30;1.30;;;;;;;13.94;36.44;100835.94;5084067;28;20516;-74
2022/05/21 08:35:45;;;;;;;0.73;0.70;;;;;;;14.07;35.70;100833.25;5075553;28;20040;-75
2022/05/21 08:38:12;;;;;;;1.25;0.68;;;;;;;14.10;35.12;100831.81;5076966;28;20041;-73
2022/05/21 08:40:37;;;;;;;1.98;0.90;;;;;;;14.15;35.27;100824.28;5097507;28;20040;-73
2022/05/21 08:43:04;;;;;;;1.25;0.90;;;;;;;14.10;35.01;100854.72;5083200;28;20033;-73
2022/05/21 08:45:48;;;;;;;1.15;0.80;;;;;;;14.02;35.75;100844.34;5077145;28;20037;-74
2022/05/21 08:48:15;;;;;;;1.58;0.70;;;;;;;13.97;35.68;100822.34;5089871;28;20036;-73
2022/05/21 08:50:45;;;;;;;1.75;0.90;;;;;;;14.00;34.89;100848.53;5077734;28;20044;-74
2022/05/21 08:53:16;;;;;;;1.92;0.70;;;;;;;13.82;35.42;100826.16;5072846;28;20060;-73
2022/05/21 08:55:51;;;;;;;1.95;0.90;;;;;;;13.76;35.31;100832.06;5071448;28;20040;-74
2022/05/21 08:58:35;;;;;;;1.63;0.55;;;;;;;13.88;35.33;100854.47;5073133;28;20045;-74
2022/05/21 09:01:00;;;;;;;1.65;0.80;;;;;;;13.93;34.51;100824.06;5090978;28;20036;-75
2022/05/21 09:03:31;;;;;;;1.13;0.90;;;;;;;13.79;35.74;100829.50;5091237;28;20043;-75
2022/05/21 09:06:18;;;;;;;1.35;0.90;;;;;;;13.79;36.01;100821.22;5089608;28;20131;-75
2022/05/21 09:08:47;;;;;;;5.53;1.33;;;;;;;13.60;35.28;100831.44;5075005;28;20036;-74
2022/05/21 09:11:24;;;;;;;1.60;0.80;;;;;;;13.58;35.44;100842.78;5075618;28;20040;-74
2022/05/21 09:14:27;;;;;;;1.60;0.70;;;;;;;13.53;35.35;100853.03;5070852;28;20396;-75
2022/05/21 09:16:57;;;;;;;0.40;0.40;;;;;;;13.41;35.68;100827.84;5072023;28;20189;-75
2022/05/21 09:19:46;;;;;;;2.45;0.77;;;;;;;13.08;36.48;100826.84;5071968;28;20048;-74
2022/05/21 09:22:15;;;;;;;0.50;0.50;;;;;;;12.90;36.42;100815.47;5070694;28;20529;-74
2022/05/21 09:24:55;;;;;;;1.70;0.93;;;;;;;12.73;37.09;100859.16;5084615;28;20048;-74
2022/05/21 09:27:39;;;;;;;1.77;1.20;;;;;;;12.55;37.94;100816.66;5072677;28;20036;-75
2022/05/21 09:30:20;;;;;;;2.13;1.10;;;;;;;12.28;38.35;100819.91;5084461;28;20036;-74
2022/05/21 09:32:52;;;;;;;0.65;0.65;;;;;;;12.03;38.92;100828.38;5076775;28;20575;-74
2022/05/21 09:35:32;;;;;;;0.80;0.70;;;;;;;11.73;38.99;100810.94;5085215;28;20044;-74
2022/05/21 09:38:15;;;;;;;1.45;0.40;;;;;;;11.54;40.16;100809.94;5090122;28;20448;-75
2022/05/21 09:40:41;;;;;;;0.65;0.50;;;;;;;11.38;40.08;100822.94;5089395;28;20036;-73
2022/05/21 09:46:28;;;;;;;5.40;1.10;;;;;;;11.12;40.93;100811.25;5071361;28;20131;-73
2022/05/21 09:49:16;;;;;;;2.88;1.55;;;;;;;11.05;40.92;100809.91;5080968;28;20497;-75
2022/05/21 09:52:10;;;;;;;2.15;1.15;;;;;;;10.94;41.36;100811.06;5088883;28;20093;-74
2022/05/21 09:54:41;;;;;;;2.70;0.90;;;;;;;10.81;41.83;100809.72;5086072;28;20730;-73
2022/05/21 09:57:28;;;;;;;1.10;1.00;;;;;;;10.71;41.46;100801.47;5091626;28;20055;-74
2022/05/21 10:00:19;;;;;;;3.47;1.05;;;;;;;10.70;41.06;100811.63;5071068;28;20093;-74
2022/05/21 10:02:49;;;;;;;2.85;1.25;;;;;;;10.66;42.11;100787.78;5077029;28;20074;-74
2022/05/21 10:05:49;;;;;;;2.53;1.20;;;;;;;10.57;41.13;100793.00;5070966;28;20032;-74
2022/05/21 10:11:35;;;;;;;3.40;0.75;;;;;;;10.57;41.15;100784.75;5071195;28;20048;-74
2022/05/21 10:14:04;;;;;;;0.98;0.70;;;;;;;10.54;41.41;100794.38;5089527;28;20139;-75
2022/05/21 10:16:40;;;;;;;1.15;0.93;;;;;;;10.47;40.91;100806.75;5087726;28;20044;-73
2022/05/21 10:19:11;;;;;;;4.75;1.70;;;;;;;10.41;41.22;100781.25;5089919;28;20642;-74
2022/05/21 10:22:10;;;;;;;0.70;0.65;;;;;;;10.40;41.07;100787.81;5074911;28;20457;-73
2022/05/21 10:24:57;;;;;;;0.75;0.50;;;;;;;10.39;41.29;100774.38;5070858;28;20498;-74
2022/05/21 10:27:48;;;;;;;2.85;1.42;;;;;;;10.35;40.57;100778.78;5081922;28;20044;-74
2022/05/21 10:30:19;;;;;;;0.73;0.30;;;;;;;10.35;39.39;100770.53;5082857;28;20032;-75
2022/05/21 10:33:03;;;;;;;1.33;1.00;;;;;;;10.37;39.08;100777.41;5087824;28;20461;-75
2022/05/21 10:36:03;;;;;;;3.75;1.23;;;;;;;10.29;39.16;100775.22;5084500;28;20137;-75
2022/05/21 10:38:54;;;;;;;3.60;1.65;;;;;;;10.26;40.16;100764.81;5083779;28;20165;-73
2022/05/21 10:41:44;;;;;;;0.93;0.80;;;;;;;10.27;39.42;100739.84;5090426;28;20506;-75
2022/05/21 10:44:19;;;;;;;0.60;0.60;;;;;;;10.36;40.15;100742.00;5087412;28;20552;-75
2022/05/21 10:47:03;;;;;;;0.40;0.40;;;;;;;10.40;39.18;100749.41;5091131;28;20050;-74
2022/05/21 10:49:38;;;;;;;0.55;0.55;;;;;;;10.43;39.04;100735.16;5091018;28;20650;-74
2022/05/21 10:52:26;;;;;;;0.63;0.52;;;;;;;10.46;39.00;100737.34;5094154;28;20043;-74
2022/05/21 10:55:13;;;;;;;1.10;0.90;;;;;;;10.46;39.13;100753.81;5093484;28;20044;-74
2022/05/21 10:58:04;;;;;;;4.03;1.00;;;;;;;10.37;38.34;100732.69;5092933;28;20126;-75
2022/05/21 11:00:45;;;;;;;0.80;0.80;;;;;;;10.32;38.73;100736.28;5094548;28;20044;-74
2022/05/21 11:03:44;;;;;;;1.05;0.47;;;;;;;10.32;38.40;100738.19;5093380;28;20577;-74
2022/05/21 11:06:25;;;;;;;1.77;1.00;;;;;;;10.31;39.35;100785.91;5087515;28;20040;-73
2022/05/21 11:09:08;;;;;;;1.27;0.90;;;;;;;10.29;38.79;100763.44;5091651;28;20122;-74
2022/05/21 11:11:43;;;;;;;0.93;0.70;;;;;;;10.29;39.49;100769.75;5075115;28;20032;-74
2022/05/21 11:14:38;;;;;;;1.98;1.02;;;;;;;10.29;38.79;100763.44;5094827;28;20165;-73
2022/05/21 11:17:20;;;;;;;1.00;0.85;;;;;;;10.26;38.88;100751.09;5087466;28;20085;-72
2022/05/21 11:19:52;;;;;;;1.85;1.00;;;;;;;10.22;39.14;100745.31;5085688;28;20063;-73
2022/05/21 11:22:26;;;;;;;1.45;1.05;;;;;;;10.22;39.28;100736.28;5087195;28;20071;-73
2022/05/21 11:24:57;;;;;;;2.03;1.00;;;;;;;10.22;39.21;100730.78;5077423;28;20136;-73
2022/05/21 11:27:34;;;;;;;0.65;0.65;;;;;;;10.25;38.64;100739.31;5074295;28;20041;-74
2022/05/21 11:30:07;;;;;;;1.00;0.93;;;;;;;10.31;38.49;100747.53;5074709;28;20041;-73
2022/05/21 11:38:51;;;;;;;1.00;0.90;;;;;;;10.19;40.35;100718.44;5081415;28;20515;-73
2022/05/21 11:41:55;;;;;;;0.95;0.85;;;;;;;10.25;39.35;100733.81;5085101;28;20465;-74
2022/05/21 11:47:05;;;;;;;1.42;1.20;;;;;;;10.24;39.83;100718.47;5098025;28;20028;-73
2022/05/21 11:49:48;;;;;;;1.92;1.00;;;;;;;10.20;39.12;100714.59;5082986;28;20085;-73
2022/05/21 11:52:26;;;;;;;1.85;0.80;;;;;;;10.22;38.98;100717.06;5091514;28;20101;-73
2022/05/21 11:54:58;;;;;;;1.20;1.10;;;;;;;10.24;39.63;100731.38;5092604;28;20453;-73
2022/05/21 11:57:57;;;;;;;2.22;0.95;;;;;;;10.23;39.24;100710.50;5082008;28;20036;-73
2022/05/21 12:00:25;;;;;;;3.58;1.13;;;;;;;10.24;39.01;100707.50;5076568;28;20065;-73
2022/05/21 12:02:54;;;;;;;0.98;0.82;;;;;;;10.27;39.21;100698.72;5079328;28;20036;-73
2022/05/21 12:05:48;;;;;;;1.38;1.15;;;;;;;10.36;39.00;100693.47;5089327;28;20068;-73
2022/05/21 12:08:25;;;;;;;2.35;1.45;;;;;;;10.41;38.75;100693.47;5075807;28;20679;-73
2022/05/21 12:11:11;;;;;;;0.68;0.68;;;;;;;10.39;38.96;100695.66;5089696;28;20050;-73
2022/05/21 12:13:40;;;;;;;1.52;1.42;;;;;;;10.43;39.73;100696.75;5098238;28;20043;-73
2022/05/21 12:16:21;;;;;;;4.00;1.40;;;;;;;10.48;38.90;100706.88;5085815;28;20483;-74
2022/05/21 12:18:54;;;;;;;2.10;1.02;;;;;;;10.46;38.97;100693.44;5074610;28;20040;-73
2022/05/21 12:21:36;;;;;;;0.52;0.52;;;;;;;10.43;39.48;100696.75;5077727;28;20032;-73